sensor_id;sensor_type;location;lat;lon;timestamp;pressure;altitude;pressure_sealevel;temperature;humidity
8699;BME280;4386;51.236;6.742;2023-05-07T00:00:24;96983.53;;;20.81;44.95
8699;BME280;4386;51.236;6.742;2023-05-07T00:01:34;96983.28;;;20.77;44.75
8699;BME280;4386;51.236;6.742;2023-05-07T00:02:56;96981.13;;;20.74;45.21
8699;BME280;4386;51.236;6.742;2023-05-07T00:04:00;96989.78;;;20.71;45.02
8699;BME280;4386;51.236;6.742;2023-05-07T00:05:04;96991.34;;;20.72;45.18
8699;BME280;4386;51.236;6.742;2023-05-07T00:06:09;96998.09;;;20.69;45.08
8699;BME280;4386;51.236;6.742;2023-05-07T00:07:12;96996.47;;;20.68;45.18
8699;BME280;4386;51.236;6.742;2023-05-07T00:08:15;96991.41;;;20.67;45.51
8699;BME280;4386;51.236;6.742;2023-05-07T00:09:18;96986.56;;;20.64;45.30
8699;BME280;4386;51.236;6.742;2023-05-07T00:10:21;96992.50;;;20.61;45.64
8699;BME280;4386;51.236;6.742;2023-05-07T00:11:34;96987.94;;;20.56;46.11
8699;BME280;4386;51.236;6.742;2023-05-07T00:12:38;96988.47;;;20.53;46.05
8699;BME280;4386;51.236;6.742;2023-05-07T00:13:41;96989.84;;;20.51;46.60
8699;BME280;4386;51.236;6.742;2023-05-07T00:14:44;96988.22;;;20.50;46.32
8699;BME280;4386;51.236;6.742;2023-05-07T00:15:47;96983.41;;;20.47;46.54
8699;BME280;4386;51.236;6.742;2023-05-07T00:16:50;96990.13;;;20.44;46.74
8699;BME280;4386;51.236;6.742;2023-05-07T00:17:53;96984.50;;;20.41;47.19
8699;BME280;4386;51.236;6.742;2023-05-07T00:18:57;96988.00;;;20.36;47.20
8699;BME280;4386;51.236;6.742;2023-05-07T00:20:00;96981.03;;;20.35;47.53
8699;BME280;4386;51.236;6.742;2023-05-07T00:21:03;96980.78;;;20.32;47.80
8699;BME280;4386;51.236;6.742;2023-05-07T00:22:08;96980.78;;;20.32;47.76
8699;BME280;4386;51.236;6.742;2023-05-07T00:23:12;96978.63;;;20.29;47.97
8699;BME280;4386;51.236;6.742;2023-05-07T00:24:15;96979.69;;;20.27;47.90
8699;BME280;4386;51.236;6.742;2023-05-07T00:25:18;96988.00;;;20.26;48.15
8699;BME280;4386;51.236;6.742;2023-05-07T00:26:22;96986.16;;;20.26;48.37
8699;BME280;4386;51.236;6.742;2023-05-07T00:27:25;96985.31;;;20.26;48.48
8699;BME280;4386;51.236;6.742;2023-05-07T00:28:27;96975.66;;;20.25;48.67
8699;BME280;4386;51.236;6.742;2023-05-07T00:29:31;96981.03;;;20.25;48.57
8699;BME280;4386;51.236;6.742;2023-05-07T00:30:34;96986.16;;;20.26;48.53
8699;BME280;4386;51.236;6.742;2023-05-07T00:31:37;96980.22;;;20.24;48.66
8699;BME280;4386;51.236;6.742;2023-05-07T00:32:39;96982.34;;;20.22;48.83
8699;BME280;4386;51.236;6.742;2023-05-07T00:33:43;96982.09;;;20.19;48.93
8699;BME280;4386;51.236;6.742;2023-05-07T00:34:45;96983.72;;;20.20;48.96
8699;BME280;4386;51.236;6.742;2023-05-07T00:35:48;96986.16;;;20.16;49.29
8699;BME280;4386;51.236;6.742;2023-05-07T00:36:51;96985.63;;;20.14;48.91
8699;BME280;4386;51.236;6.742;2023-05-07T00:37:56;96977.00;;;20.12;49.25
8699;BME280;4386;51.236;6.742;2023-05-07T00:39:00;96986.16;;;20.11;49.35
8699;BME280;4386;51.236;6.742;2023-05-07T00:40:06;96981.03;;;20.10;49.52
8699;BME280;4386;51.236;6.742;2023-05-07T00:41:09;96988.31;;;20.09;49.25
8699;BME280;4386;51.236;6.742;2023-05-07T00:42:13;96989.94;;;20.10;49.29
8699;BME280;4386;51.236;6.742;2023-05-07T00:43:16;96985.63;;;20.09;49.36
8699;BME280;4386;51.236;6.742;2023-05-07T00:44:20;96995.59;;;20.09;49.05
8699;BME280;4386;51.236;6.742;2023-05-07T00:45:24;96994.78;;;20.08;49.24
8699;BME280;4386;51.236;6.742;2023-05-07T00:46:30;96989.13;;;20.05;49.50
8699;BME280;4386;51.236;6.742;2023-05-07T00:47:33;96994.25;;;20.01;49.43
8699;BME280;4386;51.236;6.742;2023-05-07T00:48:37;96998.28;;;19.99;49.46
8699;BME280;4386;51.236;6.742;2023-05-07T00:49:42;96996.41;;;19.94;49.71
8699;BME280;4386;51.236;6.742;2023-05-07T00:50:46;96996.94;;;19.91;49.68
8699;BME280;4386;51.236;6.742;2023-05-07T00:51:49;96997.50;;;19.88;49.32
8699;BME280;4386;51.236;6.742;2023-05-07T00:52:53;96995.88;;;19.87;49.62
8699;BME280;4386;51.236;6.742;2023-05-07T00:53:59;96996.44;;;19.89;49.50
8699;BME280;4386;51.236;6.742;2023-05-07T00:55:05;96995.31;;;19.90;49.73
8699;BME280;4386;51.236;6.742;2023-05-07T00:56:10;96989.41;;;19.93;49.46
8699;BME280;4386;51.236;6.742;2023-05-07T00:57:13;96995.88;;;19.97;49.22
8699;BME280;4386;51.236;6.742;2023-05-07T00:58:17;96987.53;;;19.99;49.16
8699;BME280;4386;51.236;6.742;2023-05-07T00:59:20;96987.25;;;20.00;49.23
8699;BME280;4386;51.236;6.742;2023-05-07T01:00:23;96983.50;;;20.01;49.00
8699;BME280;4386;51.236;6.742;2023-05-07T01:01:29;96986.72;;;19.98;49.19
8699;BME280;4386;51.236;6.742;2023-05-07T01:02:32;96987.28;;;19.95;49.10
8699;BME280;4386;51.236;6.742;2023-05-07T01:03:35;96984.84;;;19.94;49.06
8699;BME280;4386;51.236;6.742;2023-05-07T01:04:39;96981.63;;;19.87;49.22
8699;BME280;4386;51.236;6.742;2023-05-07T01:05:43;96978.66;;;19.83;49.05
8699;BME280;4386;51.236;6.742;2023-05-07T01:06:49;96980.56;;;19.83;49.34
8699;BME280;4386;51.236;6.742;2023-05-07T01:07:53;96981.91;;;19.85;49.17
8699;BME280;4386;51.236;6.742;2023-05-07T01:08:59;96974.38;;;19.87;49.28
8699;BME280;4386;51.236;6.742;2023-05-07T01:10:03;96978.13;;;19.86;49.38
8699;BME280;4386;51.236;6.742;2023-05-07T01:11:08;96980.56;;;19.88;49.70
8699;BME280;4386;51.236;6.742;2023-05-07T01:12:11;96984.31;;;19.87;49.52
8699;BME280;4386;51.236;6.742;2023-05-07T01:13:16;96975.47;;;19.81;49.60
8699;BME280;4386;51.236;6.742;2023-05-07T01:14:19;96985.94;;;19.77;49.62
8699;BME280;4386;51.236;6.742;2023-05-07T01:15:23;96983.28;;;19.72;50.05
8699;BME280;4386;51.236;6.742;2023-05-07T01:16:26;96981.66;;;19.66;50.24
8699;BME280;4386;51.236;6.742;2023-05-07T01:17:33;96985.69;;;19.64;50.15
8699;BME280;4386;51.236;6.742;2023-05-07T01:18:35;96991.06;;;19.59;50.33
8699;BME280;4386;51.236;6.742;2023-05-07T01:19:39;96990.00;;;19.50;50.76
8699;BME280;4386;51.236;6.742;2023-05-07T01:20:41;96996.41;;;19.44;50.73
8699;BME280;4386;51.236;6.742;2023-05-07T01:21:47;96985.44;;;19.40;51.02
8699;BME280;4386;51.236;6.742;2023-05-07T01:22:51;96983.78;;;19.39;51.08
8699;BME280;4386;51.236;6.742;2023-05-07T01:23:56;96993.44;;;19.35;51.29
8699;BME280;4386;51.236;6.742;2023-05-07T01:25:00;96989.66;;;19.31;51.63
8699;BME280;4386;51.236;6.742;2023-05-07T01:26:03;96989.09;;;19.24;51.48
8699;BME280;4386;51.236;6.742;2023-05-07T01:27:07;96991.81;;;19.19;51.79
8699;BME280;4386;51.236;6.742;2023-05-07T01:28:10;96986.16;;;19.10;51.97
8699;BME280;4386;51.236;6.742;2023-05-07T01:29:13;96993.38;;;19.05;51.85
8699;BME280;4386;51.236;6.742;2023-05-07T01:30:16;96996.88;;;19.00;52.38
8699;BME280;4386;51.236;6.742;2023-05-07T01:31:21;96989.31;;;18.92;52.72
8699;BME280;4386;51.236;6.742;2023-05-07T01:32:29;96989.31;;;18.92;52.68
8699;BME280;4386;51.236;6.742;2023-05-07T01:33:36;96996.28;;;18.88;52.67
8699;BME280;4386;51.236;6.742;2023-05-07T01:34:42;96989.84;;;18.84;52.98
8699;BME280;4386;51.236;6.742;2023-05-07T01:35:46;96994.66;;;18.82;53.44
8699;BME280;4386;51.236;6.742;2023-05-07T01:36:52;96994.94;;;18.81;53.42
8699;BME280;4386;51.236;6.742;2023-05-07T01:37:56;96987.66;;;18.76;53.44
8699;BME280;4386;51.236;6.742;2023-05-07T01:39:00;96989.81;;;18.74;53.61
8699;BME280;4386;51.236;6.742;2023-05-07T01:40:05;96995.19;;;18.74;53.46
8699;BME280;4386;51.236;6.742;2023-05-07T01:41:10;96994.38;;;18.73;53.85
8699;BME280;4386;51.236;6.742;2023-05-07T01:42:13;96993.84;;;18.71;53.85
8699;BME280;4386;51.236;6.742;2023-05-07T01:43:17;96997.06;;;18.73;53.74
8699;BME280;4386;51.236;6.742;2023-05-07T01:44:20;96989.53;;;18.76;53.71
8699;BME280;4386;51.236;6.742;2023-05-07T01:45:24;96989.53;;;18.76;53.85
8699;BME280;4386;51.236;6.742;2023-05-07T01:46:28;96991.97;;;18.77;53.70
8699;BME280;4386;51.236;6.742;2023-05-07T01:47:32;96991.69;;;18.79;53.63
8699;BME280;4386;51.236;6.742;2023-05-07T01:48:35;96993.84;;;18.77;53.73
8699;BME280;4386;51.236;6.742;2023-05-07T01:49:40;96986.34;;;18.79;53.82
8699;BME280;4386;51.236;6.742;2023-05-07T01:50:44;96989.81;;;18.79;53.60
8699;BME280;4386;51.236;6.742;2023-05-07T01:51:48;96989.81;;;18.79;53.63
8699;BME280;4386;51.236;6.742;2023-05-07T01:52:51;96990.63;;;18.80;53.94
8699;BME280;4386;51.236;6.742;2023-05-07T01:53:55;96994.13;;;18.80;53.83
8699;BME280;4386;51.236;6.742;2023-05-07T01:54:58;96991.44;;;18.80;53.54
8699;BME280;4386;51.236;6.742;2023-05-07T01:56:02;96993.06;;;18.81;54.07
8699;BME280;4386;51.236;6.742;2023-05-07T01:57:04;96985.56;;;18.83;53.54
8699;BME280;4386;51.236;6.742;2023-05-07T01:58:08;96990.91;;;18.88;53.63
8699;BME280;4386;51.236;6.742;2023-05-07T01:59:10;96986.66;;;18.92;53.60
8699;BME280;4386;51.236;6.742;2023-05-07T02:00:16;96986.41;;;18.94;53.42
8699;BME280;4386;51.236;6.742;2023-05-07T02:01:20;97000.88;;;18.93;53.71
8699;BME280;4386;51.236;6.742;2023-05-07T02:02:23;96991.47;;;18.90;53.33
8699;BME280;4386;51.236;6.742;2023-05-07T02:03:27;96990.38;;;18.86;53.77
8699;BME280;4386;51.236;6.742;2023-05-07T02:04:30;96998.97;;;18.83;53.74
8699;BME280;4386;51.236;6.742;2023-05-07T02:05:33;96997.34;;;18.77;53.75
8699;BME280;4386;51.236;6.742;2023-05-07T02:06:36;96989.25;;;18.72;54.02
8699;BME280;4386;51.236;6.742;2023-05-07T02:07:40;96987.38;;;18.67;54.05
8699;BME280;4386;51.236;6.742;2023-05-07T02:08:42;96984.41;;;18.64;54.21
8699;BME280;4386;51.236;6.742;2023-05-07T02:14:05;96991.38;;;18.55;54.17
8699;BME280;4386;51.236;6.742;2023-05-07T02:15:26;96987.06;;;18.59;53.99
8699;BME280;4386;51.236;6.742;2023-05-07T02:16:46;96990.31;;;18.66;53.86
8699;BME280;4386;51.236;6.742;2023-05-07T02:18:08;96987.66;;;18.71;53.75
8699;BME280;4386;51.236;6.742;2023-05-07T02:19:28;96978.81;;;18.76;53.79
8699;BME280;4386;51.236;6.742;2023-05-07T02:20:49;96986.63;;;18.77;53.43
8699;BME280;4386;51.236;6.742;2023-05-07T02:22:10;96986.09;;;18.80;53.24
8699;BME280;4386;51.236;6.742;2023-05-07T02:23:30;96986.63;;;18.82;53.42
8699;BME280;4386;51.236;6.742;2023-05-07T02:24:51;96986.91;;;18.81;53.38
8699;BME280;4386;51.236;6.742;2023-05-07T02:26:11;96986.91;;;18.81;53.51
8699;BME280;4386;51.236;6.742;2023-05-07T02:27:31;96986.38;;;18.84;53.40
8699;BME280;4386;51.236;6.742;2023-05-07T02:28:53;96982.88;;;18.88;53.15
8699;BME280;4386;51.236;6.742;2023-05-07T02:30:15;96982.88;;;18.88;53.13
8699;BME280;4386;51.236;6.742;2023-05-07T02:31:35;96979.13;;;18.89;53.44
8699;BME280;4386;51.236;6.742;2023-05-07T02:32:56;96986.94;;;18.91;53.18
8699;BME280;4386;51.236;6.742;2023-05-07T02:34:16;96981.81;;;18.89;53.07
8699;BME280;4386;51.236;6.742;2023-05-07T02:35:37;96982.63;;;18.90;53.11
8699;BME280;4386;51.236;6.742;2023-05-07T02:36:57;96981.81;;;18.89;53.19
8699;BME280;4386;51.236;6.742;2023-05-07T02:38:18;96987.19;;;18.84;53.54
8699;BME280;4386;51.236;6.742;2023-05-07T02:39:38;96985.53;;;18.73;53.43
8699;BME280;4386;51.236;6.742;2023-05-07T02:40:59;96984.66;;;18.62;53.90
8699;BME280;4386;51.236;6.742;2023-05-07T02:42:20;96983.84;;;18.52;54.23
8699;BME280;4386;51.236;6.742;2023-05-07T02:43:40;96979.72;;;18.39;54.37
8699;BME280;4386;51.236;6.742;2023-05-07T02:45:01;96983.69;;;18.27;54.94
8699;BME280;4386;51.236;6.742;2023-05-07T02:46:22;96986.31;;;18.16;54.99
8699;BME280;4386;51.236;6.742;2023-05-07T02:47:43;96989.50;;;18.08;55.14
8699;BME280;4386;51.236;6.742;2023-05-07T02:49:03;96984.34;;;18.02;55.50
8699;BME280;4386;51.236;6.742;2023-05-07T02:50:24;96989.44;;;17.98;55.73
8699;BME280;4386;51.236;6.742;2023-05-07T02:51:45;96990.19;;;17.94;55.75
8699;BME280;4386;51.236;6.742;2023-05-07T02:53:06;96985.63;;;17.94;55.77
8699;BME280;4386;51.236;6.742;2023-05-07T02:54:26;96992.13;;;18.03;55.98
8699;BME280;4386;51.236;6.742;2023-05-07T02:55:47;96988.44;;;18.14;55.59
8699;BME280;4386;51.236;6.742;2023-05-07T02:57:07;96986.59;;;18.20;55.29
8699;BME280;4386;51.236;6.742;2023-05-07T02:58:27;96979.13;;;18.27;55.06
8699;BME280;4386;51.236;6.742;2023-05-07T02:59:48;96987.75;;;18.34;55.01
8699;BME280;4386;51.236;6.742;2023-05-07T03:01:15;96980.50;;;18.35;54.85
8699;BME280;4386;51.236;6.742;2023-05-07T03:02:43;96980.75;;;18.33;55.05
8699;BME280;4386;51.236;6.742;2023-05-07T03:04:07;96984.25;;;18.29;55.19
8699;BME280;4386;51.236;6.742;2023-05-07T03:05:35;96974.03;;;18.26;55.18
8699;BME280;4386;51.236;6.742;2023-05-07T03:06:59;96976.69;;;18.20;55.27
8699;BME280;4386;51.236;6.742;2023-05-07T03:08:21;96968.34;;;18.17;55.35
8699;BME280;4386;51.236;6.742;2023-05-07T03:09:41;96971.56;;;18.14;55.50
8699;BME280;4386;51.236;6.742;2023-05-07T03:11:02;96980.41;;;18.09;55.75
8699;BME280;4386;51.236;6.742;2023-05-07T03:12:22;96975.03;;;18.09;55.60
8699;BME280;4386;51.236;6.742;2023-05-07T03:13:43;96983.59;;;18.11;55.65
8699;BME280;4386;51.236;6.742;2023-05-07T03:15:03;96977.22;;;18.17;55.50
8699;BME280;4386;51.236;6.742;2023-05-07T03:16:24;96969.19;;;18.22;55.18
8699;BME280;4386;51.236;6.742;2023-05-07T03:17:46;96976.19;;;18.29;55.19
8699;BME280;4386;51.236;6.742;2023-05-07T03:19:07;96970.84;;;18.34;54.76
8699;BME280;4386;51.236;6.742;2023-05-07T03:20:27;96978.94;;;18.39;54.98
8699;BME280;4386;51.236;6.742;2023-05-07T03:21:48;96972.75;;;18.38;54.89
8699;BME280;4386;51.236;6.742;2023-05-07T03:23:07;96973.81;;;18.32;54.80
8699;BME280;4386;51.236;6.742;2023-05-07T03:24:28;96971.31;;;18.20;55.11
8699;BME280;4386;51.236;6.742;2023-05-07T03:25:49;96966.44;;;18.07;55.35
8699;BME280;4386;51.236;6.742;2023-05-07T03:27:09;96970.66;;;17.98;55.90
8699;BME280;4386;51.236;6.742;2023-05-07T03:28:29;96968.75;;;17.89;55.96
8699;BME280;4386;51.236;6.742;2023-05-07T03:29:50;96965.19;;;17.78;56.25
8699;BME280;4386;51.236;6.742;2023-05-07T03:31:10;96968.88;;;17.72;56.43
8699;BME280;4386;51.236;6.742;2023-05-07T03:32:31;96970.44;;;17.63;56.80
8699;BME280;4386;51.236;6.742;2023-05-07T03:33:52;96967.72;;;17.58;57.04
8699;BME280;4386;51.236;6.742;2023-05-07T03:35:14;96967.66;;;17.53;57.15
8699;BME280;4386;51.236;6.742;2023-05-07T03:36:35;96960.66;;;17.52;57.30
8699;BME280;4386;51.236;6.742;2023-05-07T03:37:55;96960.66;;;17.52;57.26
8699;BME280;4386;51.236;6.742;2023-05-07T03:39:16;96962.28;;;17.53;57.11
8699;BME280;4386;51.236;6.742;2023-05-07T03:40:36;96957.69;;;17.48;57.14
8699;BME280;4386;51.236;6.742;2023-05-07T03:41:57;96959.53;;;17.43;57.21
8699;BME280;4386;51.236;6.742;2023-05-07T03:43:18;96964.28;;;17.36;57.43
8699;BME280;4386;51.236;6.742;2023-05-07T03:44:39;96968.53;;;17.32;57.64
8699;BME280;4386;51.236;6.742;2023-05-07T03:45:59;96968.22;;;17.28;57.88
8699;BME280;4386;51.236;6.742;2023-05-07T03:47:20;96967.69;;;17.26;57.99
8699;BME280;4386;51.236;6.742;2023-05-07T03:48:41;96971.13;;;17.22;58.42
8699;BME280;4386;51.236;6.742;2023-05-07T03:50:02;96967.34;;;17.17;58.27
8699;BME280;4386;51.236;6.742;2023-05-07T03:51:23;96960.38;;;17.16;58.44
8699;BME280;4386;51.236;6.742;2023-05-07T03:52:43;96974.81;;;17.15;58.76
8699;BME280;4386;51.236;6.742;2023-05-07T03:54:04;96969.47;;;17.15;58.61
8699;BME280;4386;51.236;6.742;2023-05-07T03:55:24;96972.94;;;17.16;58.52
8699;BME280;4386;51.236;6.742;2023-05-07T03:56:45;96974.00;;;17.15;58.69
8699;BME280;4386;51.236;6.742;2023-05-07T03:58:05;96970.78;;;17.13;58.85
8699;BME280;4386;51.236;6.742;2023-05-07T03:59:26;96976.38;;;17.11;58.70
8699;BME280;4386;51.236;6.742;2023-05-07T04:00:46;96983.41;;;17.17;58.96
8699;BME280;4386;51.236;6.742;2023-05-07T04:02:07;96988.84;;;17.28;58.80
8699;BME280;4386;51.236;6.742;2023-05-07T04:03:28;96988.41;;;17.41;58.35
8699;BME280;4386;51.236;6.742;2023-05-07T04:04:48;96983.44;;;17.54;58.12
8699;BME280;4386;51.236;6.742;2023-05-07T04:06:11;96988.66;;;17.66;58.02
8699;BME280;4386;51.236;6.742;2023-05-07T04:07:32;96991.94;;;17.73;57.50
8699;BME280;4386;51.236;6.742;2023-05-07T04:08:52;96986.38;;;17.80;57.18
8699;BME280;4386;51.236;6.742;2023-05-07T04:10:12;96992.50;;;17.80;56.96
8699;BME280;4386;51.236;6.742;2023-05-07T04:11:34;96991.94;;;17.73;57.07
8699;BME280;4386;51.236;6.742;2023-05-07T04:12:54;96984.13;;;17.66;56.96
8699;BME280;4386;51.236;6.742;2023-05-07T04:14:16;96985.91;;;17.56;57.42
8699;BME280;4386;51.236;6.742;2023-05-07T04:15:36;96979.34;;;17.42;57.53
8699;BME280;4386;51.236;6.742;2023-05-07T04:16:57;96991.81;;;17.31;57.93
8699;BME280;4386;51.236;6.742;2023-05-07T04:18:18;96984.47;;;17.16;58.42
8699;BME280;4386;51.236;6.742;2023-05-07T04:19:39;96987.59;;;17.08;58.67
8699;BME280;4386;51.236;6.742;2023-05-07T04:21:04;96982.44;;;17.02;58.94
8699;BME280;4386;51.236;6.742;2023-05-07T04:22:27;96982.13;;;16.98;59.04
8699;BME280;4386;51.236;6.742;2023-05-07T04:23:47;96975.13;;;16.92;59.23
8699;BME280;4386;51.236;6.742;2023-05-07T04:25:09;96977.78;;;16.92;59.65
8699;BME280;4386;51.236;6.742;2023-05-07T04:26:29;96979.47;;;16.98;59.02
8699;BME280;4386;51.236;6.742;2023-05-07T04:27:50;96977.06;;;16.97;59.36
8699;BME280;4386;51.236;6.742;2023-05-07T04:29:10;96989.56;;;16.91;59.49
8699;BME280;4386;51.236;6.742;2023-05-07T04:30:31;96985.50;;;16.89;59.55
8699;BME280;4386;51.236;6.742;2023-05-07T04:31:51;96981.28;;;16.93;59.51
8699;BME280;4386;51.236;6.742;2023-05-07T04:33:13;96991.28;;;17.02;59.51
8699;BME280;4386;51.236;6.742;2023-05-07T04:34:34;96986.53;;;17.09;59.36
8699;BME280;4386;51.236;6.742;2023-05-07T04:35:55;96990.38;;;17.18;59.16
8699;BME280;4386;51.236;6.742;2023-05-07T04:37:15;96996.31;;;17.26;59.01
8699;BME280;4386;51.236;6.742;2023-05-07T04:38:37;96997.44;;;17.30;58.98
8699;BME280;4386;51.236;6.742;2023-05-07T04:39:57;97004.66;;;17.29;59.12
8699;BME280;4386;51.236;6.742;2023-05-07T04:41:17;97011.31;;;17.27;59.20
8699;BME280;4386;51.236;6.742;2023-05-07T04:42:38;97003.50;;;17.20;58.95
8699;BME280;4386;51.236;6.742;2023-05-07T04:43:58;97012.59;;;17.19;59.34
8699;BME280;4386;51.236;6.742;2023-05-07T04:45:19;97010.47;;;17.21;59.30
8699;BME280;4386;51.236;6.742;2023-05-07T04:46:39;97005.47;;;17.30;58.96
8699;BME280;4386;51.236;6.742;2023-05-07T04:48:00;97010.91;;;17.40;59.05
8699;BME280;4386;51.236;6.742;2023-05-07T04:49:20;97005.28;;;17.41;59.02
8699;BME280;4386;51.236;6.742;2023-05-07T04:50:41;97006.63;;;17.39;59.06
8699;BME280;4386;51.236;6.742;2023-05-07T04:52:01;97005.00;;;17.38;59.33
8699;BME280;4386;51.236;6.742;2023-05-07T04:53:34;97009.81;;;17.41;59.37
8699;BME280;4386;51.236;6.742;2023-05-07T04:54:58;97019.28;;;17.48;59.43
8699;BME280;4386;51.236;6.742;2023-05-07T04:56:19;97026.69;;;17.63;59.53
8699;BME280;4386;51.236;6.742;2023-05-07T04:57:40;97019.81;;;17.77;59.62
8699;BME280;4386;51.236;6.742;2023-05-07T04:59:01;97023.72;;;17.96;59.28
8699;BME280;4386;51.236;6.742;2023-05-07T05:00:22;97027.06;;;18.18;59.14
8699;BME280;4386;51.236;6.742;2023-05-07T05:01:44;97019.69;;;18.41;58.54
8699;BME280;4386;51.236;6.742;2023-05-07T05:03:04;97020.38;;;18.68;58.27
8699;BME280;4386;51.236;6.742;2023-05-07T05:04:24;97022.63;;;18.96;57.59
8699;BME280;4386;51.236;6.742;2023-05-07T05:06:03;97029.13;;;19.25;56.76
8699;BME280;4386;51.236;6.742;2023-05-07T05:07:41;97020.84;;;19.47;55.90
8699;BME280;4386;51.236;6.742;2023-05-07T05:09:19;97027.34;;;19.71;55.72
8699;BME280;4386;51.236;6.742;2023-05-07T05:11:00;97021.69;;;19.98;54.69
8699;BME280;4386;51.236;6.742;2023-05-07T05:12:39;97020.56;;;20.19;54.19
8699;BME280;4386;51.236;6.742;2023-05-07T05:14:17;97023.78;;;20.42;53.41
8699;BME280;4386;51.236;6.742;2023-05-07T05:15:55;97020.97;;;20.72;53.25
8699;BME280;4386;51.236;6.742;2023-05-07T05:17:34;97019.47;;;21.05;51.85
8699;BME280;4386;51.236;6.742;2023-05-07T05:19:12;97024.22;;;21.28;51.54
8699;BME280;4386;51.236;6.742;2023-05-07T05:20:51;97029.72;;;21.52;50.63
8699;BME280;4386;51.236;6.742;2023-05-07T05:22:30;97030.06;;;21.79;50.34
8699;BME280;4386;51.236;6.742;2023-05-07T05:24:08;97034.44;;;22.04;49.70
8699;BME280;4386;51.236;6.742;2023-05-07T05:25:47;97034.03;;;22.20;48.87
8699;BME280;4386;51.236;6.742;2023-05-07T05:27:26;97023.47;;;22.24;48.44
8699;BME280;4386;51.236;6.742;2023-05-07T05:29:05;97022.56;;;22.33;48.41
8699;BME280;4386;51.236;6.742;2023-05-07T05:30:43;97027.28;;;22.47;48.07
8699;BME280;4386;51.236;6.742;2023-05-07T05:32:21;97024.38;;;22.62;47.76
8699;BME280;4386;51.236;6.742;2023-05-07T05:34:00;97027.94;;;22.86;47.10
8699;BME280;4386;51.236;6.742;2023-05-07T05:35:39;97023.72;;;23.17;46.44
8699;BME280;4386;51.236;6.742;2023-05-07T05:37:18;97029.53;;;23.48;46.21
8699;BME280;4386;51.236;6.742;2023-05-07T05:38:56;97025.13;;;23.71;45.52
8699;BME280;4386;51.236;6.742;2023-05-07T05:40:35;97034.00;;;23.90;44.56
8699;BME280;4386;51.236;6.742;2023-05-07T05:42:13;97030.91;;;23.97;44.23
8699;BME280;4386;51.236;6.742;2023-05-07T05:43:53;97029.66;;;24.08;44.27
8699;BME280;4386;51.236;6.742;2023-05-07T05:45:32;97032.13;;;24.23;43.77
8699;BME280;4386;51.236;6.742;2023-05-07T05:47:10;97028.63;;;24.36;43.51
8699;BME280;4386;51.236;6.742;2023-05-07T05:48:49;97033.47;;;24.53;42.99
8699;BME280;4386;51.236;6.742;2023-05-07T05:50:27;97036.88;;;24.72;42.40
8699;BME280;4386;51.236;6.742;2023-05-07T05:52:06;97034.19;;;24.99;42.21
8699;BME280;4386;51.236;6.742;2023-05-07T05:53:44;97037.34;;;25.28;41.97
8699;BME280;4386;51.236;6.742;2023-05-07T05:55:23;97032.44;;;25.66;41.09
8699;BME280;4386;51.236;6.742;2023-05-07T05:57:01;97041.50;;;26.06;40.71
8699;BME280;4386;51.236;6.742;2023-05-07T05:58:40;97043.69;;;26.49;40.17
8699;BME280;4386;51.236;6.742;2023-05-07T06:00:22;97044.91;;;26.73;39.48
8699;BME280;4386;51.236;6.742;2023-05-07T06:02:00;97039.75;;;26.94;38.94
8699;BME280;4386;51.236;6.742;2023-05-07T06:03:39;97035.81;;;27.26;38.31
8699;BME280;4386;51.236;6.742;2023-05-07T06:05:18;97040.34;;;27.56;37.96
8699;BME280;4386;51.236;6.742;2023-05-07T06:06:56;97039.22;;;27.83;37.19
8699;BME280;4386;51.236;6.742;2023-05-07T06:08:34;97036.34;;;28.14;36.46
8699;BME280;4386;51.236;6.742;2023-05-07T06:10:13;97039.69;;;28.19;36.32
8699;BME280;4386;51.236;6.742;2023-05-07T06:11:52;97033.56;;;28.31;36.17
8699;BME280;4386;51.236;6.742;2023-05-07T06:13:30;97039.47;;;28.41;36.05
8699;BME280;4386;51.236;6.742;2023-05-07T06:15:09;97042.81;;;28.47;35.51
8699;BME280;4386;51.236;6.742;2023-05-07T06:16:49;97041.94;;;28.64;35.01
8699;BME280;4386;51.236;6.742;2023-05-07T06:18:28;97034.41;;;28.78;35.10
8699;BME280;4386;51.236;6.742;2023-05-07T06:20:07;97034.97;;;28.92;34.38
8699;BME280;4386;51.236;6.742;2023-05-07T06:21:46;97040.13;;;29.14;34.50
8699;BME280;4386;51.236;6.742;2023-05-07T06:23:24;97044.72;;;29.22;34.79
8699;BME280;4386;51.236;6.742;2023-05-07T06:25:03;97042.28;;;29.09;34.74
8699;BME280;4386;51.236;6.742;2023-05-07T06:26:41;97049.81;;;29.03;34.41
8699;BME280;4386;51.236;6.742;2023-05-07T06:28:20;97040.75;;;28.90;34.52
8699;BME280;4386;51.236;6.742;2023-05-07T06:29:58;97034.63;;;28.93;34.59
8699;BME280;4386;51.236;6.742;2023-05-07T06:31:36;97037.78;;;29.04;34.35
8699;BME280;4386;51.236;6.742;2023-05-07T07:23:50;97026.97;;;32.17;29.54
8699;BME280;4386;51.236;6.742;2023-05-07T07:24:53;97025.56;;;32.23;29.99
8699;BME280;4386;51.236;6.742;2023-05-07T07:25:56;97026.66;;;32.34;29.37
8699;BME280;4386;51.236;6.742;2023-05-07T07:26:59;97025.09;;;32.49;29.86
8699;BME280;4386;51.236;6.742;2023-05-07T07:28:03;97028.78;;;32.57;29.76
8699;BME280;4386;51.236;6.742;2023-05-07T07:29:06;97027.56;;;32.70;28.87
8699;BME280;4386;51.236;6.742;2023-05-07T07:30:09;97032.63;;;32.83;28.80
8699;BME280;4386;51.236;6.742;2023-05-07T07:31:13;97033.59;;;32.91;28.42
8699;BME280;4386;51.236;6.742;2023-05-07T07:32:15;97021.63;;;32.99;28.88
8699;BME280;4386;51.236;6.742;2023-05-07T07:33:19;97026.06;;;33.03;28.03
8699;BME280;4386;51.236;6.742;2023-05-07T07:34:21;97029.34;;;33.09;28.75
8699;BME280;4386;51.236;6.742;2023-05-07T07:35:25;97019.78;;;33.03;28.00
8699;BME280;4386;51.236;6.742;2023-05-07T07:36:27;97026.84;;;33.04;28.24
8699;BME280;4386;51.236;6.742;2023-05-07T07:37:47;97026.16;;;33.07;28.39
8699;BME280;4386;51.236;6.742;2023-05-07T07:38:53;97023.78;;;33.21;28.53
8699;BME280;4386;51.236;6.742;2023-05-07T07:39:56;97029.72;;;33.42;27.80
8699;BME280;4386;51.236;6.742;2023-05-07T07:41:00;97033.94;;;33.56;27.85
8699;BME280;4386;51.236;6.742;2023-05-07T07:42:02;97032.25;;;33.67;27.69
8699;BME280;4386;51.236;6.742;2023-05-07T07:43:06;97030.09;;;33.76;27.44
8699;BME280;4386;51.236;6.742;2023-05-07T07:44:08;97027.84;;;33.81;27.70
8699;BME280;4386;51.236;6.742;2023-05-07T07:45:17;97030.38;;;33.90;27.46
8699;BME280;4386;51.236;6.742;2023-05-07T07:46:20;97027.91;;;34.04;27.50
8699;BME280;4386;51.236;6.742;2023-05-07T07:47:23;97041.53;;;34.16;26.95
8699;BME280;4386;51.236;6.742;2023-05-07T07:48:27;97038.78;;;34.16;27.34
8699;BME280;4386;51.236;6.742;2023-05-07T07:49:29;97028.63;;;34.20;27.26
8699;BME280;4386;51.236;6.742;2023-05-07T07:50:33;97032.94;;;34.40;27.19